This is the latest recevied weather packets stored in our database for station/object N0KWA. If no packets are shown the sender has not sent any weather packets the latest 10 day(s).
| Time | Temp. | Humidity | Pressure | Rain* | Wind** | Luminosity | Snow |
|---|---|---|---|---|---|---|---|
| 1777859860 | 15.56° C | 87% | 1020.6 hPa | 0 mm | - | 0 W/m² | - |
| 1777859557 | 16.11° C | 86% | 1020.3 hPa | 0 mm | - | 0 W/m² | - |
| 1777859252 | 16.67° C | 85% | 1020.3 hPa | 0 mm | - | 0 W/m² | - |
| 1777858949 | 16.67° C | 84% | 1020.4 hPa | 0 mm | - | 0 W/m² | - |
| 1777858647 | 16.67° C | 84% | 1020.4 hPa | 0 mm | - | 0 W/m² | - |
| 1777858344 | 16.67° C | 83% | 1020.3 hPa | 0 mm | - | 0 W/m² | - |
| 1777858041 | 16.67° C | 83% | 1020.2 hPa | 0 mm | - | 0 W/m² | - |
| 1777857739 | 16.67° C | 83% | 1020.2 hPa | 0 mm | - | 0 W/m² | - |
| 1777857435 | 17.22° C | 81% | 1020.1 hPa | 0 mm | - | 0 W/m² | - |
| 1777857132 | 17.22° C | 79% | 1020.1 hPa | 0 mm | - | 0 W/m² | - |
| 1777856828 | 17.78° C | 79% | 1020 hPa | 0 mm | - | 0 W/m² | - |
| 1777856524 | 17.78° C | 80% | 1020.1 hPa | 0 mm | - | 0 W/m² | - |
| 1777856220 | 17.78° C | 78% | 1020.1 hPa | 0 mm | - | 0 W/m² | - |
| 1777855917 | 18.33° C | 76% | 1019.9 hPa | 0 mm | - | 0 W/m² | - |
| 1777855615 | 18.33° C | 74% | 1019.9 hPa | 0 mm | - | 0 W/m² | - |
| 1777855312 | 18.89° C | 73% | 1019.8 hPa | 0 mm | - | 0 W/m² | - |
| 1777855008 | 18.89° C | 75% | 1019.9 hPa | 0 mm | - | 0 W/m² | - |
| 1777854706 | 18.89° C | 71% | 1019.9 hPa | 0 mm | - | 0 W/m² | - |
| 1777854402 | 19.44° C | 69% | 1019.9 hPa | 0 mm | - | 0 W/m² | - |
| 1777854100 | 20° C | 67% | 1019.8 hPa | 0 mm | - | 0 W/m² | - |
| 1777853797 | 20° C | 64% | 1019.9 hPa | 0 mm | - | 0 W/m² | - |
| 1777853493 | 20° C | 64% | 1019.9 hPa | 0 mm | - | 0 W/m² | - |
| 1777853191 | 20.56° C | 64% | 1019.8 hPa | 0 mm | - | 0 W/m² | - |
| 1777852888 | 20.56° C | 63% | 1019.7 hPa | 0 mm | - | 1 W/m² | - |
| 1777852586 | 21.11° C | 62% | 1019.7 hPa | 0 mm | - | 1 W/m² | - |
* Rain latest hour (hover to see other rain measurements)
** Current wind speed in m/s (hover to see current wind gust speed)